Bosporus — V2QY — position and weather

sailwx.info

Track history (hours):
 
Tides and Currents Weather Stations Pressure Air Temp Water Temp Dewpoint Dewpoint Depression Visibility Wind Speed Wind Dir Waves Ship Positions

Bosporus

Last reported at 2017-Oct-17 17:57 UTC. Time now 2017-Oct-18 00:31 UTC.
Position N 43°09' E 009°50'.

Length 100 m; draft 5.9 m.

Type: Cargo ship. MMSI: 304010802.

Date/timePositionNaut miles runAvg speedWind from/ knotsBaromVisibWave heightAir tempDewpointWater temp
2017-Oct-17 17:57N 43°09' E 009°50'510.6
2017-Oct-17 17:29N 43°10' E 009°44'4010.6
2017-Oct-17 13:42N 43°07' E 008°49'210.6
2017-Oct-17 13:30N 43°06' E 008°46'1310.8
2017-Oct-17 12:17N 43°05' E 008°28'810.7
2017-Oct-17 11:31N 43°05' E 008°17'010.4
2017-Oct-17 11:30N 43°05' E 008°17'710.6
2017-Oct-17 10:49N 43°04' E 008°07'1510.7
2017-Oct-17 09:26N 43°03' E 007°47'610.6
2017-Oct-17 08:53N 43°02' E 007°39'410.5
2017-Oct-17 08:30N 43°02' E 007°34'10910.2
2017-Oct-16 21:47N 43°11' E 005°05'310.3
2017-Oct-16 21:29N 43°12' E 005°01'1110.6
2017-Oct-16 20:27N 43°23' E 004°57'4 0.6
2017-Oct-16 13:26N 43°26' E 004°54'0 0.0
2017-Oct-16 12:59N 43°26' E 004°54'0 0.0
2017-Oct-16 12:29N 43°26' E 004°54'0 0.0
2017-Oct-16 11:59N 43°26' E 004°54'0 0.0
2017-Oct-16 11:26N 43°26' E 004°54'0 0.0
2017-Oct-16 10:59N 43°26' E 004°54'0 0.1
2017-Oct-16 10:24N 43°26' E 004°54'2 5.5
2017-Oct-16 10:00N 43°24' E 004°55'1 0.1
2017-Oct-15 17:14N 43°24' E 004°57'0 1.0
2017-Oct-15 16:45N 43°24' E 004°57'1211.4
2017-Oct-15 15:44N 43°13' E 005°02'210.7
2017-Oct-15 15:30N 43°11' E 005°01'711.9
2017-Oct-15 14:57N 43°06' E 004°54'1211.9
2017-Oct-15 13:54N 42°57' E 004°42'911.6
2017-Oct-15 13:07N 42°50' E 004°34'211.6
2017-Oct-15 12:55N 42°49' E 004°32'  
2017-Oct-12 12:31N 41°07' E 001°39'010.6
2017-Oct-12 12:30N 41°07' E 001°39'510.5
2017-Oct-12 12:00N 41°09' E 001°46'196 4.8
2017-Oct-10 19:28N 43°25' E 004°55'0 0.0
2017-Oct-10 18:40N 43°25' E 004°55'0 0.0
2017-Oct-10 17:04N 43°25' E 004°55'0 0.0
2017-Oct-10 16:43N 43°25' E 004°55'0 0.0
2017-Oct-10 16:13N 43°25' E 004°55'0 0.0
2017-Oct-10 15:55N 43°25' E 004°55'0 0.0
2017-Oct-10 15:16N 43°25' E 004°55'0 0.0
2017-Oct-10 14:58N 43°25' E 004°55'0 0.0
2017-Oct-10 11:49N 43°25' E 004°55'0 0.0
2017-Oct-10 11:22N 43°25' E 004°55'0 0.1
2017-Oct-10 10:58N 43°25' E 004°55'0 0.0
2017-Oct-10 10:28N 43°25' E 004°55'0 0.0
2017-Oct-10 09:58N 43°25' E 004°55'0 0.0
2017-Oct-10 09:25N 43°25' E 004°55'0 0.0
2017-Oct-10 08:52N 43°25' E 004°55'0 0.0
2017-Oct-10 08:25N 43°25' E 004°55'0 0.0
2017-Oct-10 07:58N 43°25' E 004°55'0 0.0
2017-Oct-10 07:28N 43°25' E 004°55'0 0.0
2017-Oct-10 06:55N 43°25' E 004°55'0 0.0
2017-Oct-10 06:28N 43°25' E 004°55'0 0.0
2017-Oct-10 05:58N 43°25' E 004°55'0 0.0
2017-Oct-10 05:10N 43°25' E 004°55'0 0.0
2017-Oct-10 03:37N 43°25' E 004°55'0 0.0
2017-Oct-10 03:28N 43°25' E 004°55'0 0.0
2017-Oct-10 02:58N 43°25' E 004°55'0 0.0
2017-Oct-10 02:25N 43°25' E 004°55'0 0.0
2017-Oct-10 01:46N 43°25' E 004°55'0 0.0
2017-Oct-09 20:31N 43°25' E 004°55'0 0.0
2017-Oct-09 18:49N 43°25' E 004°55'0 0.0
2017-Oct-09 18:19N 43°25' E 004°55'0 0.0
2017-Oct-09 17:40N 43°25' E 004°55'0 0.0
2017-Oct-09 17:25N 43°25' E 004°55'0 0.0
2017-Oct-09 16:55N 43°25' E 004°55'0 0.0
2017-Oct-09 16:25N 43°25' E 004°55'0 0.0
2017-Oct-09 15:55N 43°25' E 004°55'0 0.0
2017-Oct-09 14:40N 43°25' E 004°55'0 0.0
2017-Oct-09 13:37N 43°25' E 004°55'0 0.0
2017-Oct-09 13:28N 43°25' E 004°55'0 0.1
2017-Oct-09 12:58N 43°25' E 004°55'0 0.0
2017-Oct-09 12:07N 43°25' E 004°55'0 0.1
2017-Oct-09 11:58N 43°25' E 004°55'0 0.0
2017-Oct-09 11:28N 43°25' E 004°55'0 0.0
2017-Oct-09 10:49N 43°25' E 004°55'0 0.0
2017-Oct-09 10:28N 43°25' E 004°55'0 0.0
2017-Oct-09 09:58N 43°25' E 004°55'0 0.0
2017-Oct-09 09:28N 43°25' E 004°55'0 0.0
2017-Oct-09 08:58N 43°25' E 004°55'0 0.0
2017-Oct-09 08:28N 43°25' E 004°55'0 0.0
2017-Oct-09 07:58N 43°25' E 004°55'0 0.0
2017-Oct-09 07:19N 43°25' E 004°55'0 0.0
2017-Oct-08 22:55N 43°25' E 004°55'0 0.0
2017-Oct-08 17:00N 43°25' E 004°55'0 0.0
2017-Oct-08 16:22N 43°25' E 004°55'0 0.0
2017-Oct-08 16:00N 43°25' E 004°55'0 0.0
2017-Oct-08 15:22N 43°25' E 004°55'0 0.0
2017-Oct-08 14:31N 43°25' E 004°55'0 0.0
2017-Oct-08 14:30N 43°25' E 004°55'0 0.0
2017-Oct-08 13:29N 43°25' E 004°55'0 0.0
2017-Oct-08 12:49N 43°25' E 004°55'0 0.0
2017-Oct-08 12:18N 43°25' E 004°55'0 0.0
2017-Oct-08 11:59N 43°25' E 004°55'0 0.0
2017-Oct-08 11:28N 43°25' E 004°55'0 0.0
2017-Oct-08 10:47N 43°25' E 004°55'0 0.0
2017-Oct-08 10:29N 43°25' E 004°55'0 0.0
2017-Oct-08 09:14N 43°25' E 004°55'0 0.0
2017-Oct-08 08:28N 43°25' E 004°55'0 0.0
2017-Oct-08 07:33N 43°25' E 004°55'0 0.1
2017-Oct-08 07:29N 43°25' E 004°55'0 0.0
2017-Oct-08 06:31N 43°25' E 004°55'0 0.1
2017-Oct-08 06:30N 43°25' E 004°55'0 0.0
2017-Oct-08 05:54N 43°25' E 004°55'0 0.0
2017-Oct-08 05:23N 43°25' E 004°55'0 0.0
2017-Oct-08 04:34N 43°25' E 004°55'0 0.0
2017-Oct-08 04:04N 43°25' E 004°55'0 0.0
2017-Oct-08 03:43N 43°25' E 004°55'0 0.0
2017-Oct-08 00:51N 43°25' E 004°55'0 0.0
2017-Oct-07 22:41N 43°25' E 004°55'0 0.0
2017-Oct-07 21:35N 43°25' E 004°55'0 0.0
2017-Oct-07 21:18N 43°25' E 004°55'0 0.0
2017-Oct-07 20:39N 43°25' E 004°55'0 0.0
2017-Oct-07 20:15N 43°25' E 004°55'0 0.0
2017-Oct-07 20:00N 43°25' E 004°55'0 0.0
2017-Oct-07 19:22N 43°25' E 004°55'0 0.0
2017-Oct-07 18:59N 43°25' E 004°55'0 0.0
2017-Oct-07 18:30N 43°25' E 004°55'  
Track history (hours):
 
Tides and Currents Weather Stations Pressure Air Temp Water Temp Dewpoint Dewpoint Depression Visibility Wind Speed Wind Dir Waves Ship Positions

Bosporus

Last reported at 2017-Oct-17 17:57 UTC. Time now 2017-Oct-18 00:31 UTC.
Position N 43°09' E 009°50'.

Length 100 m; draft 5.9 m.

Type: Cargo ship. MMSI: 304010802.

Date/timePositionNaut miles runAvg speedWind from/ knotsBaromVisibWave heightAir tempDewpointWater temp
2017-Oct-17 17:57N 43°09' E 009°50'510.6
2017-Oct-17 17:29N 43°10' E 009°44'4010.6
2017-Oct-17 13:42N 43°07' E 008°49'210.6
2017-Oct-17 13:30N 43°06' E 008°46'1310.8
2017-Oct-17 12:17N 43°05' E 008°28'810.7
2017-Oct-17 11:31N 43°05' E 008°17'010.4
2017-Oct-17 11:30N 43°05' E 008°17'710.6
2017-Oct-17 10:49N 43°04' E 008°07'1510.7
2017-Oct-17 09:26N 43°03' E 007°47'610.6
2017-Oct-17 08:53N 43°02' E 007°39'410.5
2017-Oct-17 08:30N 43°02' E 007°34'10910.2
2017-Oct-16 21:47N 43°11' E 005°05'310.3
2017-Oct-16 21:29N 43°12' E 005°01'1110.6
2017-Oct-16 20:27N 43°23' E 004°57'4 0.6
2017-Oct-16 13:26N 43°26' E 004°54'0 0.0
2017-Oct-16 12:59N 43°26' E 004°54'0 0.0
2017-Oct-16 12:29N 43°26' E 004°54'0 0.0
2017-Oct-16 11:59N 43°26' E 004°54'0 0.0
2017-Oct-16 11:26N 43°26' E 004°54'0 0.0
2017-Oct-16 10:59N 43°26' E 004°54'0 0.1
2017-Oct-16 10:24N 43°26' E 004°54'2 5.5
2017-Oct-16 10:00N 43°24' E 004°55'1 0.1
2017-Oct-15 17:14N 43°24' E 004°57'0 1.0
2017-Oct-15 16:45N 43°24' E 004°57'1211.4
2017-Oct-15 15:44N 43°13' E 005°02'210.7
2017-Oct-15 15:30N 43°11' E 005°01'711.9
2017-Oct-15 14:57N 43°06' E 004°54'1211.9
2017-Oct-15 13:54N 42°57' E 004°42'911.6
2017-Oct-15 13:07N 42°50' E 004°34'211.6
2017-Oct-15 12:55N 42°49' E 004°32'  
2017-Oct-12 12:31N 41°07' E 001°39'010.6
2017-Oct-12 12:30N 41°07' E 001°39'510.5
2017-Oct-12 12:00N 41°09' E 001°46'196 4.8
2017-Oct-10 19:28N 43°25' E 004°55'0 0.0
2017-Oct-10 18:40N 43°25' E 004°55'0 0.0
2017-Oct-10 17:04N 43°25' E 004°55'0 0.0
2017-Oct-10 16:43N 43°25' E 004°55'0 0.0
2017-Oct-10 16:13N 43°25' E 004°55'0 0.0
2017-Oct-10 15:55N 43°25' E 004°55'0 0.0
2017-Oct-10 15:16N 43°25' E 004°55'0 0.0
2017-Oct-10 14:58N 43°25' E 004°55'0 0.0
2017-Oct-10 11:49N 43°25' E 004°55'0 0.0
2017-Oct-10 11:22N 43°25' E 004°55'0 0.1
2017-Oct-10 10:58N 43°25' E 004°55'0 0.0
2017-Oct-10 10:28N 43°25' E 004°55'0 0.0
2017-Oct-10 09:58N 43°25' E 004°55'0 0.0
2017-Oct-10 09:25N 43°25' E 004°55'0 0.0
2017-Oct-10 08:52N 43°25' E 004°55'0 0.0
2017-Oct-10 08:25N 43°25' E 004°55'0 0.0
2017-Oct-10 07:58N 43°25' E 004°55'0 0.0
2017-Oct-10 07:28N 43°25' E 004°55'0 0.0
2017-Oct-10 06:55N 43°25' E 004°55'0 0.0
2017-Oct-10 06:28N 43°25' E 004°55'0 0.0
2017-Oct-10 05:58N 43°25' E 004°55'0 0.0
2017-Oct-10 05:10N 43°25' E 004°55'0 0.0
2017-Oct-10 03:37N 43°25' E 004°55'0 0.0
2017-Oct-10 03:28N 43°25' E 004°55'0 0.0
2017-Oct-10 02:58N 43°25' E 004°55'0 0.0
2017-Oct-10 02:25N 43°25' E 004°55'0 0.0
2017-Oct-10 01:46N 43°25' E 004°55'0 0.0
2017-Oct-09 20:31N 43°25' E 004°55'0 0.0
2017-Oct-09 18:49N 43°25' E 004°55'0 0.0
2017-Oct-09 18:19N 43°25' E 004°55'0 0.0
2017-Oct-09 17:40N 43°25' E 004°55'0 0.0
2017-Oct-09 17:25N 43°25' E 004°55'0 0.0
2017-Oct-09 16:55N 43°25' E 004°55'0 0.0
2017-Oct-09 16:25N 43°25' E 004°55'0 0.0
2017-Oct-09 15:55N 43°25' E 004°55'0 0.0
2017-Oct-09 14:40N 43°25' E 004°55'0 0.0
2017-Oct-09 13:37N 43°25' E 004°55'0 0.0
2017-Oct-09 13:28N 43°25' E 004°55'0 0.1
2017-Oct-09 12:58N 43°25' E 004°55'0 0.0
2017-Oct-09 12:07N 43°25' E 004°55'0 0.1
2017-Oct-09 11:58N 43°25' E 004°55'0 0.0
2017-Oct-09 11:28N 43°25' E 004°55'0 0.0
2017-Oct-09 10:49N 43°25' E 004°55'0 0.0
2017-Oct-09 10:28N 43°25' E 004°55'0 0.0
2017-Oct-09 09:58N 43°25' E 004°55'0 0.0
2017-Oct-09 09:28N 43°25' E 004°55'0 0.0
2017-Oct-09 08:58N 43°25' E 004°55'0 0.0
2017-Oct-09 08:28N 43°25' E 004°55'0 0.0
2017-Oct-09 07:58N 43°25' E 004°55'0 0.0
2017-Oct-09 07:19N 43°25' E 004°55'0 0.0
2017-Oct-08 22:55N 43°25' E 004°55'0 0.0
2017-Oct-08 17:00N 43°25' E 004°55'0 0.0
2017-Oct-08 16:22N 43°25' E 004°55'0 0.0
2017-Oct-08 16:00N 43°25' E 004°55'0 0.0
2017-Oct-08 15:22N 43°25' E 004°55'0 0.0
2017-Oct-08 14:31N 43°25' E 004°55'0 0.0
2017-Oct-08 14:30N 43°25' E 004°55'0 0.0
2017-Oct-08 13:29N 43°25' E 004°55'0 0.0
2017-Oct-08 12:49N 43°25' E 004°55'0 0.0
2017-Oct-08 12:18N 43°25' E 004°55'0 0.0
2017-Oct-08 11:59N 43°25' E 004°55'0 0.0
2017-Oct-08 11:28N 43°25' E 004°55'0 0.0
2017-Oct-08 10:47N 43°25' E 004°55'0 0.0
2017-Oct-08 10:29N 43°25' E 004°55'0 0.0
2017-Oct-08 09:14N 43°25' E 004°55'0 0.0
2017-Oct-08 08:28N 43°25' E 004°55'0 0.0
2017-Oct-08 07:33N 43°25' E 004°55'0 0.1
2017-Oct-08 07:29N 43°25' E 004°55'0 0.0
2017-Oct-08 06:31N 43°25' E 004°55'0 0.1
2017-Oct-08 06:30N 43°25' E 004°55'0 0.0
2017-Oct-08 05:54N 43°25' E 004°55'0 0.0
2017-Oct-08 05:23N 43°25' E 004°55'0 0.0
2017-Oct-08 04:34N 43°25' E 004°55'0 0.0
2017-Oct-08 04:04N 43°25' E 004°55'0 0.0
2017-Oct-08 03:43N 43°25' E 004°55'0 0.0
2017-Oct-08 00:51N 43°25' E 004°55'0 0.0
2017-Oct-07 22:41N 43°25' E 004°55'0 0.0
2017-Oct-07 21:35N 43°25' E 004°55'0 0.0
2017-Oct-07 21:18N 43°25' E 004°55'0 0.0
2017-Oct-07 20:39N 43°25' E 004°55'0 0.0
2017-Oct-07 20:15N 43°25' E 004°55'0 0.0
2017-Oct-07 20:00N 43°25' E 004°55'0 0.0
2017-Oct-07 19:22N 43°25' E 004°55'0 0.0
2017-Oct-07 18:59N 43°25' E 004°55'0 0.0
2017-Oct-07 18:30N 43°25' E 004°55'  

Dump ship's entire track history